Detall de PIREP

Printer-friendly versionPDF version

[2009/12/31 16:15:00]
Flight IATA:CT3126
Pilot Number:011
Company ICAO:CAT
Aircraft Type:F50/A
PAX:50
Departing Airport: LFMP
Destination Airport: LEZG
Alternate Airport:LEMD
Online: VATSIM
Route:BGR H110 REBUL G23 GRAUS
Flight Level:FL210
No Slew and time accel
No pause
Crash detect
Detect pilot in Cockpit between each 30 and 45 minutes
16:15 Zero fuel Weight: 42185 Lbs, Fuel Weight: 2724 Lbs
16:15 VATSIM:LFMP 311600Z 04003KT 7000 BKN010 BKN016 11/08 Q0993 NOSIG
16:15 VATSIM:LEZG 311600Z 25014G24KT 9000 -RA FEW030 FEW040TCU BKN050 10/06 Q0994 RERA
16:18 Parking Brakes off
16:28 Take-off
16:28 Take off Weight: 44811 Lbs
16:28 Wind: 043 @ 003 Knots Heading: 142
16:28 POS N42 44 50 E002 52 03
16:28 Flaps:3 at 123 Knots
16:28 Gear Up: 124 Knots
16:28 Flaps:4 at 157 Knots
16:28 Flaps:3 at 155 Knots
16:28 Flaps:2 at 155 Knots
16:28 Flaps:1 at 157 Knots
16:
29 Flaps:0 at 159 Knots
16:46 TOC
16:46 Fuel Weight: 2153 Lb
17:11 TOD
17:11 Fuel Weight: 1541 Lb
17:41 Flaps:1 at 167 Knots
17:42 Flaps:2 at 159 Knots
17:42 Flaps:3 at 146 Knots
17:42 Flaps:4 at 126 Knots
17:42 Gear Down: 124 Knots
17:43 Wind:221@013 Knots Heading: 293 Ground Speed: 117 Knots Altitude 1975 ft
17:43 Flaps:5 at 97 Knots
17:43 Flaps:6 at 96 Knots
17:45 TouchDown:Rate -114 ft/min Speed: 90 Knots
17:45 VATSIM:LEZG 311730Z 27005KT 230V320 9999 FEW030 SCT070 10/05 Q0994
17:46 Land
17:46 Wind:291@005 Knots
17:46 Heading: 298
17:46 Flight Duration: 01:18
17:46 Landing Weight: 43240 Lbs
17:46 POS N41 39 46 W001 01 31
17:52 Parking brakes on
17:52 Block to Block Duration: 01:34
17:52 Final Fuel: 1011 Lbls
17:52 Spent Fuel: 1712 Lbls
17:52 Flight Length: 54 NM
17:52 TOD Land Length: 05 NM

Exportar CSV

Powered by Drupal - Modified by Danger4k